KSNA/SNA METAR and TAF weather

Enter ICAO airport designator
Station Type Date Time Source
KSNA METAR 2021/05/15 00:53 UTC NOAA

KSNA 150053Z 23008KT 200V270 10SM FEW014 19/12 A2993 RMK AO2 SLP135 T01940117 $


Station Type Date Time Source
KSNA Decoded METAR 2021/05/15 00:53 UTC NOAA

SANTA ANA WAYNE ORANGE CTY, CA, United States (KSNA) 33-41N 117-52W 15M
May 14, 2021 - 08:53 PM EDT / 2021.05.15 0053 UTC
Wind: from the SW (230 degrees) at 9 MPH (8 KT) (direction variable):0
Visibility: 10 mile(s):0
Sky conditions: mostly clear
Temperature: 66.9 F (19.4 C)
Dew Point: 53.1 F (11.7 C)
Relative Humidity: 61%
Pressure (altimeter): 29.93 in. Hg (1013 hPa)
ob: KSNA 150053Z 23008KT 200V270 10SM FEW014 19/12 A2993 RMK AO2 SLP135 T01940117
cycle: 1

Station Type Date Time Source
KSNA TAF 2021/05/14 18:30 UTC NOAA

TAF KSNA 141729Z 1418/1518 VRB04KT P6SM SCT025
FM142100 22009KT P6SM FEW025
FM150100 22005KT P6SM SCT020
FM150300 VRB03KT P6SM OVC018
FM151200 VRB04KT P6SM OVC025

Example: see airport list